HTKJ

Details ICAO HTKJ (JRO)
Name KILIMANJARO INTL
Region Tanzania
Timezone Africa/Dar_es_Salaam (UTC+3.0)
Plans Departing 88
Arriving 114
Stats Elevation 2,932 ft / 894 m (AMSL)
Location -3.429455° 37.074499°
Runways 1
Magnetic Variation 0.127° W
Sunrise 2017-12-16 03:19:07 UTC / 2017-12-16 06:19:07 Local
Sunset 2017-12-16 15:38:14 UTC / 2017-12-16 18:38:14 Local
Advertisement - Login to hide

Runways

ID Width Length Bearing (true) Bearing (mag) Surface Threshold Offset Overrun Length
09 148 ft / 45 m 11,818 ft / 3,602 m 87.51° 87.64° Asphalt 0 ft / 0 m 197 ft / 60 m
27 148 ft / 45 m 11,818 ft / 3,602 m 267.51° 267.64° Asphalt 0 ft / 0 m 197 ft / 60 m

Approach Navaids

Runway Type Ident Frequency Range Bearing (true) Bearing (mag) Slope Elevation
09 Localiser KK 110.90 MHz 18 nm / 33 km 87.43° 87.56° - 2,932 ft / 894 m (AMSL)
09 Glidescope KK 110.90 MHz 10 nm / 19 km 87.51° 87.64° 3.00° 2,932 ft / 894 m (AMSL)

Map

Weather


0- 5 10 15 20 25 30 35+ Temperature / ° C

Clouds and Precipitation
Forecast for 2017-12-16 00:00 UTC. Updated an hour ago

Ground ~20,000 ft ~40,000 ft Winds

METAR

HTKJ 152200Z 09020KT 9999 FEW026 25/14 Q 1014 NOSIG

TAF

TAF HTKJ 151700Z 1518/1618 09010KT 9999 FEW040 BECMG 1612/1616 FEW042CB SCT044

Frequencies

Recorded 126.60 MHz ATIS
Approach 119.90 MHz APP
Tower 120.10 MHz TWR
Approach 120.10 MHz APP
Warning: Do not use this data for real-world aviation or navigation. No guarantee of current accuracy is given.